createdAt,value
2018-03-15T00:02:03.117Z,3.14
2018-03-15T00:04:28.993Z,3.10
2018-03-15T00:06:54.907Z,3.03
2018-03-15T00:09:20.765Z,3.12
2018-03-15T00:11:46.617Z,3.14
2018-03-15T00:14:12.504Z,3.17
2018-03-15T00:16:38.366Z,3.08
2018-03-15T00:19:04.220Z,3.01
2018-03-15T00:21:30.213Z,2.88
2018-03-15T00:23:56.074Z,2.88
2018-03-15T00:26:21.937Z,2.77
2018-03-15T00:28:47.868Z,2.77
2018-03-15T00:31:13.721Z,2.84
2018-03-15T00:33:39.680Z,2.79
2018-03-15T00:36:05.594Z,2.83
2018-03-15T00:38:31.440Z,2.83
2018-03-15T00:40:57.284Z,2.87
2018-03-15T00:43:23.198Z,2.87
2018-03-15T00:45:49.150Z,2.87
2018-03-15T00:48:15.004Z,2.93
2018-03-15T00:50:40.901Z,2.92
2018-03-15T00:53:06.773Z,2.92
2018-03-15T00:55:32.675Z,2.93
2018-03-15T00:57:58.664Z,2.86
2018-03-15T01:00:24.528Z,2.92
2018-03-15T01:02:50.377Z,2.88
2018-03-15T01:05:16.284Z,2.92
2018-03-15T01:07:42.150Z,2.87
2018-03-15T01:10:08.105Z,2.97
2018-03-15T01:12:34.000Z,2.94
2018-03-15T01:14:59.874Z,2.97
2018-03-15T01:17:25.736Z,2.94
2018-03-15T01:19:51.802Z,2.97
2018-03-15T01:22:17.711Z,2.95
2018-03-15T01:24:43.565Z,3.04
2018-03-15T01:27:09.472Z,3.10
2018-03-15T01:29:35.329Z,3.04
2018-03-15T01:32:01.184Z,3.05
2018-03-15T01:34:27.081Z,3.10
2018-03-15T01:36:52.945Z,3.09
2018-03-15T01:39:18.814Z,3.13
2018-03-15T01:41:44.700Z,3.05
2018-03-15T01:44:10.570Z,3.07
2018-03-15T01:46:36.433Z,3.05
2018-03-15T01:49:02.345Z,3.07
2018-03-15T01:51:28.209Z,3.05
2018-03-15T01:53:54.085Z,3.08
2018-03-15T01:56:19.986Z,2.99
2018-03-15T01:58:45.857Z,2.94
2018-03-15T02:01:11.751Z,2.87
2018-03-15T02:03:37.668Z,2.95
2018-03-15T02:06:03.532Z,2.85
2018-03-15T02:08:29.377Z,2.80
2018-03-15T02:10:55.438Z,2.77
2018-03-15T02:13:21.314Z,2.83
2018-03-15T02:15:47.156Z,2.83
2018-03-15T02:18:13.376Z,2.85
2018-03-15T02:20:39.393Z,2.82
2018-03-15T02:23:05.332Z,2.79
2018-03-15T02:25:31.225Z,2.83
2018-03-15T02:27:57.079Z,2.73
2018-03-15T02:30:22.951Z,2.78
2018-03-15T02:32:48.862Z,2.84
2018-03-15T02:35:14.808Z,2.81
2018-03-15T02:37:40.660Z,2.81
2018-03-15T02:40:06.738Z,2.83
2018-03-15T02:42:32.620Z,2.86
2018-03-15T02:44:58.478Z,2.83
2018-03-15T02:47:24.812Z,2.77
2018-03-15T02:49:50.685Z,2.84
2018-03-15T02:52:16.541Z,2.79
2018-03-15T02:54:42.430Z,2.82
2018-03-15T02:57:08.294Z,2.82
2018-03-15T02:59:34.294Z,2.77
2018-03-15T03:02:00.208Z,2.68
2018-03-15T03:04:26.070Z,2.71
2018-03-15T03:06:51.930Z,2.76
2018-03-15T03:09:17.870Z,2.74
2018-03-15T03:11:43.884Z,2.79
2018-03-15T03:14:09.763Z,2.79
2018-03-15T03:16:35.981Z,2.77
2018-03-15T03:19:01.880Z,2.71
2018-03-15T03:21:27.774Z,2.73
2018-03-15T03:23:53.835Z,2.83
2018-03-15T03:26:19.709Z,2.79
2018-03-15T03:28:45.550Z,2.77
2018-03-15T03:31:11.522Z,2.79
2018-03-15T03:33:37.376Z,2.74
2018-03-15T03:36:03.392Z,2.76
2018-03-15T03:38:29.473Z,2.72
2018-03-15T03:40:55.348Z,2.77
2018-03-15T03:43:21.192Z,2.76
2018-03-15T03:45:47.093Z,2.78
2018-03-15T03:48:13.920Z,2.79
2018-03-15T03:50:39.794Z,2.71
2018-03-15T03:53:05.697Z,2.71
2018-03-15T03:55:31.572Z,2.73
2018-03-15T03:57:57.437Z,2.73
2018-03-15T04:00:23.504Z,2.71
2018-03-15T04:02:49.375Z,2.70
2018-03-15T04:05:15.221Z,2.70
2018-03-15T04:07:41.126Z,2.73
2018-03-15T04:10:07.006Z,2.72
2018-03-15T04:12:33.098Z,2.67
2018-03-15T04:14:59.008Z,2.73
2018-03-15T04:17:24.864Z,2.68
2018-03-15T04:19:50.721Z,2.70
2018-03-15T04:22:16.624Z,2.71
2018-03-15T04:24:42.630Z,2.75
2018-03-15T04:27:08.513Z,2.73
2018-03-15T04:29:34.433Z,2.72
2018-03-15T04:32:00.291Z,2.75
2018-03-15T04:34:26.155Z,2.77
2018-03-15T04:36:52.202Z,2.79
2018-03-15T04:39:18.064Z,2.73
2018-03-15T04:41:43.916Z,2.73
2018-03-15T04:44:09.837Z,2.76
2018-03-15T04:46:35.693Z,2.73
2018-03-15T04:49:01.686Z,2.72
2018-03-15T04:51:27.584Z,2.70
2018-03-15T04:53:53.436Z,2.69
2018-03-15T04:56:19.281Z,2.71
2018-03-15T04:58:45.360Z,2.74
2018-03-15T05:01:11.374Z,2.71
2018-03-15T05:03:37.233Z,2.71
2018-03-15T05:06:03.142Z,2.72
2018-03-15T05:08:29.002Z,2.79
2018-03-15T05:10:54.852Z,2.77
2018-03-15T05:13:21.101Z,2.77
2018-03-15T05:15:46.969Z,2.74
2018-03-15T05:18:12.854Z,2.77
2018-03-15T05:20:38.733Z,2.74
2018-03-15T05:23:04.589Z,2.78
2018-03-15T05:25:30.593Z,2.84
2018-03-15T05:27:56.516Z,2.79
2018-03-15T05:30:22.368Z,2.83
2018-03-15T05:32:48.221Z,2.81
2018-03-15T05:35:14.126Z,2.80
2018-03-15T05:37:40.125Z,2.88
2018-03-15T05:40:06.001Z,2.91
2018-03-15T05:42:31.897Z,2.93
2018-03-15T05:44:57.758Z,2.94
2018-03-15T05:47:23.625Z,2.95
2018-03-15T05:49:49.685Z,2.96
2018-03-15T05:52:15.542Z,2.92
2018-03-15T05:54:41.393Z,2.96
2018-03-15T05:57:07.686Z,2.97
2018-03-15T05:59:33.556Z,2.97
2018-03-15T06:01:59.560Z,2.93
2018-03-15T06:04:25.473Z,2.97
2018-03-15T06:06:51.339Z,2.93
2018-03-15T06:09:17.194Z,2.99
2018-03-15T06:11:43.089Z,2.94
2018-03-15T06:14:09.089Z,3.01
2018-03-15T06:16:34.949Z,2.97
2018-03-15T06:19:00.835Z,2.98
2018-03-15T06:21:26.692Z,2.96
2018-03-15T06:23:52.562Z,3.00
2018-03-15T06:26:18.529Z,2.92
2018-03-15T06:28:44.418Z,2.96
2018-03-15T06:31:10.282Z,2.95
2018-03-15T06:33:36.177Z,3.00
2018-03-15T06:36:02.041Z,2.94
2018-03-15T06:38:27.898Z,2.88
2018-03-15T06:40:53.806Z,2.89
2018-03-15T06:43:19.672Z,2.99
2018-03-15T06:45:45.528Z,2.91
2018-03-15T06:48:11.421Z,2.80
2018-03-15T06:50:37.475Z,2.82
2018-03-15T06:53:03.401Z,2.73
2018-03-15T06:55:29.335Z,2.82
2018-03-15T06:57:55.194Z,2.77
2018-03-15T07:00:21.058Z,2.69
2018-03-15T07:02:46.977Z,2.71
2018-03-15T07:05:12.847Z,2.69
2018-03-15T07:07:38.704Z,2.75
2018-03-15T07:10:04.597Z,2.64
2018-03-15T07:12:30.465Z,2.76
2018-03-15T07:14:56.333Z,2.71
2018-03-15T07:17:22.228Z,2.71
2018-03-15T07:19:48.104Z,2.70
2018-03-15T07:22:13.969Z,2.72
2018-03-15T07:24:39.881Z,2.75
2018-03-15T07:27:05.736Z,2.78
2018-03-15T07:29:31.741Z,2.81
2018-03-15T07:31:57.661Z,2.82
2018-03-15T07:34:23.510Z,2.82
2018-03-15T07:36:49.462Z,2.82
2018-03-15T07:39:15.344Z,2.82
2018-03-15T07:41:41.225Z,2.91
2018-03-15T07:44:07.096Z,2.87
2018-03-15T07:46:32.984Z,2.95
2018-03-15T07:48:58.853Z,2.94
2018-03-15T07:51:24.708Z,2.98
2018-03-15T07:53:50.598Z,2.87
2018-03-15T07:56:16.457Z,2.94
2018-03-15T07:58:42.300Z,2.99
2018-03-15T08:01:08.219Z,2.90
2018-03-15T08:03:34.067Z,2.89
2018-03-15T08:05:59.982Z,2.89
2018-03-15T08:08:25.873Z,3.03
2018-03-15T08:10:51.732Z,3.01
2018-03-15T08:13:17.590Z,3.03
2018-03-15T08:15:43.484Z,3.12
2018-03-15T08:18:09.357Z,3.13
2018-03-15T08:20:35.229Z,3.10
2018-03-15T08:23:01.142Z,3.13
2018-03-15T08:25:27.003Z,3.13
2018-03-15T08:27:52.880Z,3.10
2018-03-15T08:30:18.864Z,3.08
2018-03-15T08:32:44.708Z,3.15
2018-03-15T08:35:10.560Z,3.14
2018-03-15T08:37:36.488Z,3.19
2018-03-15T08:40:02.357Z,3.07
2018-03-15T08:42:28.321Z,3.19
2018-03-15T08:44:54.221Z,3.14
2018-03-15T08:47:20.084Z,3.16
2018-03-15T08:49:45.943Z,3.18
2018-03-15T08:52:11.837Z,3.20
2018-03-15T08:54:37.701Z,3.21
2018-03-15T08:57:03.558Z,3.21
2018-03-15T08:59:29.453Z,3.25
2018-03-15T09:01:55.333Z,3.26
2018-03-15T09:04:21.219Z,3.22
2018-03-15T09:06:47.120Z,3.38
2018-03-15T09:09:13.040Z,3.42
2018-03-15T09:11:38.843Z,3.43
2018-03-15T09:14:04.736Z,3.39
2018-03-15T09:16:30.638Z,3.38
2018-03-15T09:18:56.521Z,3.39
2018-03-15T09:21:22.433Z,3.42
2018-03-15T09:23:48.301Z,3.50
2018-03-15T09:26:14.170Z,3.55
2018-03-15T09:28:40.068Z,3.67
2018-03-15T09:31:05.991Z,3.66
2018-03-15T09:33:31.877Z,3.67
2018-03-15T09:35:57.800Z,3.69
2018-03-15T09:38:23.687Z,3.81
2018-03-15T09:40:49.564Z,3.80
2018-03-15T09:43:15.481Z,3.79
2018-03-15T09:45:41.379Z,3.88
2018-03-15T09:48:07.250Z,3.84
2018-03-15T09:50:33.175Z,3.87
2018-03-15T09:52:59.040Z,3.99
2018-03-15T09:55:24.905Z,4.18
2018-03-15T09:57:50.813Z,4.22
2018-03-15T10:00:16.693Z,4.02
2018-03-15T10:02:42.577Z,4.11
2018-03-15T10:05:08.492Z,4.06
2018-03-15T10:07:34.377Z,4.16
2018-03-15T10:10:00.253Z,4.36
2018-03-15T10:12:26.248Z,4.51
2018-03-15T10:14:52.120Z,4.64
2018-03-15T10:17:18.001Z,4.72
2018-03-15T10:19:43.918Z,4.67
2018-03-15T10:22:09.838Z,4.58
2018-03-15T10:24:35.698Z,4.43
2018-03-15T10:27:01.609Z,4.48
2018-03-15T10:29:27.485Z,4.57
2018-03-15T10:31:54.373Z,4.53
2018-03-15T10:34:20.326Z,4.51
2018-03-15T10:36:46.222Z,4.46
2018-03-15T10:39:12.123Z,4.50
2018-03-15T10:41:38.158Z,4.70
2018-03-15T10:44:04.054Z,4.61
2018-03-15T10:46:29.944Z,4.60
2018-03-15T10:48:55.872Z,4.68
2018-03-15T10:51:21.753Z,4.68
2018-03-15T10:53:47.629Z,4.89
2018-03-15T10:56:13.567Z,4.76
2018-03-15T10:58:39.432Z,4.73
2018-03-15T11:01:05.316Z,4.71
2018-03-15T11:03:37.326Z,4.81
2018-03-15T11:06:09.325Z,4.89
2018-03-15T11:08:35.234Z,4.81
2018-03-15T11:11:09.935Z,5.00
2018-03-15T11:13:35.834Z,4.91
2018-03-15T11:16:01.704Z,5.11
2018-03-15T11:18:27.616Z,4.94
2018-03-15T11:20:53.501Z,5.03
2018-03-15T11:23:19.385Z,4.86
2018-03-15T11:25:45.321Z,5.10
2018-03-15T11:28:11.192Z,5.14
2018-03-15T11:30:37.064Z,5.27
2018-03-15T11:33:03.002Z,5.42
2018-03-15T11:35:28.869Z,5.45
2018-03-15T11:37:54.754Z,5.33
2018-03-15T11:40:20.705Z,5.17
2018-03-15T11:42:46.568Z,5.10
2018-03-15T11:45:12.443Z,5.19
2018-03-15T11:47:38.356Z,5.18
2018-03-15T11:50:04.228Z,5.39
2018-03-15T11:52:30.097Z,5.30
2018-03-15T11:54:56.021Z,5.33
2018-03-15T11:57:21.881Z,5.44
2018-03-15T11:59:48.842Z,5.46
2018-03-15T12:02:14.765Z,5.57
2018-03-15T12:04:40.645Z,5.74
2018-03-15T12:07:06.530Z,5.67
2018-03-15T12:09:32.921Z,5.86
2018-03-15T12:11:58.789Z,5.86
2018-03-15T12:14:24.670Z,5.96
2018-03-15T12:16:50.587Z,5.83
2018-03-15T12:19:16.457Z,5.85
2018-03-15T12:21:42.316Z,5.73
2018-03-15T12:24:08.267Z,5.47
2018-03-15T12:26:34.120Z,5.44
2018-03-15T12:28:59.989Z,5.25
2018-03-15T12:31:25.897Z,5.41
2018-03-15T12:33:51.836Z,5.45
2018-03-15T12:36:17.689Z,5.22
2018-03-15T12:38:43.918Z,5.27
2018-03-15T12:41:09.783Z,5.19
2018-03-15T12:43:35.647Z,5.29
2018-03-15T12:46:01.662Z,5.10
2018-03-15T12:48:27.543Z,5.05
2018-03-15T12:50:53.398Z,5.08
2018-03-15T12:53:19.300Z,5.11
2018-03-15T12:55:45.156Z,5.17
2018-03-15T12:58:11.104Z,5.11
2018-03-15T13:00:37.008Z,5.24
2018-03-15T13:03:02.898Z,5.16
2018-03-15T13:05:28.756Z,5.27
2018-03-15T13:07:54.705Z,5.33
2018-03-15T13:10:20.654Z,5.39
2018-03-15T13:12:46.532Z,5.32
2018-03-15T13:15:12.441Z,5.31
2018-03-15T13:17:38.313Z,5.20
2018-03-15T13:20:04.181Z,5.10
2018-03-15T13:22:30.186Z,5.21
2018-03-15T13:24:56.048Z,5.09
2018-03-15T13:27:21.913Z,5.15
2018-03-15T13:29:47.815Z,5.24
2018-03-15T13:32:13.677Z,5.19
2018-03-15T13:34:39.642Z,5.35
2018-03-15T13:37:05.561Z,5.23
2018-03-15T13:39:31.422Z,5.27
2018-03-15T13:41:57.309Z,5.22
2018-03-15T13:44:23.593Z,5.21
2018-03-15T13:46:49.557Z,5.23
2018-03-15T13:49:15.400Z,5.07
2018-03-15T13:51:41.337Z,5.12
2018-03-15T13:54:07.217Z,5.15
2018-03-15T13:56:33.085Z,5.17
2018-03-15T13:58:59.088Z,5.21
2018-03-15T14:01:24.952Z,5.23
2018-03-15T14:03:52.137Z,5.26
2018-03-15T14:06:18.296Z,5.50
2018-03-15T14:08:44.170Z,5.72
2018-03-15T14:11:10.133Z,6.02
2018-03-15T14:13:36.051Z,6.02
2018-03-15T14:16:01.942Z,6.18
2018-03-15T14:18:27.793Z,6.13
2018-03-15T14:20:53.853Z,5.93
2018-03-15T14:23:19.981Z,5.75
2018-03-15T14:25:45.833Z,5.76
2018-03-15T14:28:11.740Z,5.64
2018-03-15T14:30:37.612Z,5.65
2018-03-15T14:33:03.486Z,5.63
2018-03-15T14:35:29.470Z,5.44
2018-03-15T14:37:55.321Z,5.41
2018-03-15T14:40:21.182Z,5.40
2018-03-15T14:42:47.102Z,5.27
2018-03-15T14:45:13.010Z,5.34
2018-03-15T14:47:38.925Z,5.21
2018-03-15T14:50:04.922Z,5.28
2018-03-15T14:52:30.785Z,5.21
2018-03-15T14:54:56.645Z,5.30
2018-03-15T14:57:22.536Z,5.29
2018-03-15T14:59:48.472Z,5.23
2018-03-15T15:02:14.346Z,5.08
2018-03-15T15:04:40.245Z,5.05
2018-03-15T15:07:06.101Z,5.02
2018-03-15T15:09:31.972Z,5.01
2018-03-15T15:11:57.961Z,4.95
2018-03-15T15:14:23.890Z,4.97
2018-03-15T15:16:49.763Z,5.03
2018-03-15T15:19:15.669Z,4.98
2018-03-15T15:21:41.586Z,5.01
2018-03-15T15:24:07.545Z,4.96
2018-03-15T15:26:33.450Z,4.95
2018-03-15T15:28:59.321Z,4.99
2018-03-15T15:31:25.190Z,4.98
2018-03-15T15:33:51.093Z,5.00
2018-03-15T15:36:17.049Z,4.92
2018-03-15T15:38:42.922Z,4.96
2018-03-15T15:41:08.821Z,4.98
2018-03-15T15:43:34.697Z,4.99
2018-03-15T15:46:00.553Z,5.03
2018-03-15T15:48:26.560Z,4.96
2018-03-15T15:50:52.465Z,4.92
2018-03-15T15:53:18.324Z,4.94
2018-03-15T15:55:44.221Z,4.93
2018-03-15T15:58:10.106Z,4.87
2018-03-15T16:00:36.061Z,4.84
2018-03-15T16:03:02.010Z,4.82
2018-03-15T16:05:27.885Z,4.79
2018-03-15T16:07:53.742Z,4.76
2018-03-15T16:10:19.665Z,4.75
2018-03-15T16:12:45.625Z,4.73
2018-03-15T16:15:11.485Z,4.71
2018-03-15T16:17:37.476Z,4.74
2018-03-15T16:20:03.352Z,4.70
2018-03-15T16:22:29.209Z,4.70
2018-03-15T16:24:55.185Z,4.67
2018-03-15T16:27:21.032Z,4.66
2018-03-15T16:29:46.875Z,4.64
2018-03-15T16:32:12.819Z,4.59
2018-03-15T16:34:38.749Z,4.53
2018-03-15T16:37:04.613Z,4.52
2018-03-15T16:39:30.505Z,4.54
2018-03-15T16:41:56.376Z,4.51
2018-03-15T16:44:22.238Z,4.45
2018-03-15T16:46:48.150Z,4.45
2018-03-15T16:49:14.009Z,4.40
2018-03-15T16:51:39.877Z,4.36
2018-03-15T16:54:05.775Z,4.32
2018-03-15T16:56:31.658Z,4.34
2018-03-15T16:58:57.516Z,4.27
2018-03-15T17:01:23.437Z,4.27
2018-03-15T17:03:49.366Z,4.25
2018-03-15T17:06:15.224Z,4.24
2018-03-15T17:08:41.183Z,4.24
2018-03-15T17:11:07.032Z,4.21
2018-03-15T17:13:32.904Z,4.23
2018-03-15T17:15:58.801Z,4.21
2018-03-15T17:18:24.686Z,4.22
2018-03-15T17:20:50.554Z,4.21
2018-03-15T17:23:16.465Z,4.20
2018-03-15T17:25:42.373Z,4.17
2018-03-15T17:28:08.243Z,4.14
2018-03-15T17:30:34.162Z,4.10
2018-03-15T17:33:00.019Z,4.07
2018-03-15T17:35:25.874Z,4.05
2018-03-15T17:37:51.768Z,4.04
2018-03-15T17:40:17.722Z,4.03
2018-03-15T17:42:43.632Z,4.02
2018-03-15T17:45:09.510Z,3.99
2018-03-15T17:47:35.368Z,3.99
2018-03-15T17:50:01.230Z,3.96
2018-03-15T17:52:27.305Z,3.96
2018-03-15T17:54:53.207Z,3.95
2018-03-15T17:57:19.069Z,3.95
2018-03-15T17:59:44.965Z,3.93
2018-03-15T18:02:10.933Z,3.94
2018-03-15T18:04:36.814Z,3.93
2018-03-15T18:07:02.728Z,3.95
2018-03-15T18:09:28.597Z,3.91
2018-03-15T18:11:54.589Z,3.90
2018-03-15T18:14:20.514Z,3.91
2018-03-15T18:16:46.378Z,3.87
2018-03-15T18:19:12.229Z,3.86
2018-03-15T18:21:38.134Z,3.87
2018-03-15T18:24:04.000Z,3.82
2018-03-15T18:26:30.005Z,3.82
2018-03-15T18:28:55.920Z,3.84
2018-03-15T18:31:21.776Z,3.80
2018-03-15T18:33:47.633Z,3.75
2018-03-15T18:36:13.530Z,3.75
2018-03-15T18:38:39.497Z,3.75
2018-03-15T18:41:05.426Z,3.70
2018-03-15T18:43:31.321Z,3.67
2018-03-15T18:45:57.176Z,3.66
2018-03-15T18:48:23.038Z,3.68
2018-03-15T18:50:48.943Z,3.68
2018-03-15T18:53:15.809Z,3.65
2018-03-15T18:55:41.693Z,3.63
2018-03-15T18:58:07.914Z,3.63
2018-03-15T19:00:33.819Z,3.62
2018-03-15T19:02:59.754Z,3.58
2018-03-15T19:05:25.720Z,3.62
2018-03-15T19:07:51.584Z,3.58
2018-03-15T19:10:17.449Z,3.56
2018-03-15T19:12:43.421Z,3.50
2018-03-15T19:15:09.284Z,3.48
2018-03-15T19:17:35.142Z,3.48
2018-03-15T19:20:01.201Z,3.47
2018-03-15T19:22:27.069Z,3.45
2018-03-15T19:24:52.949Z,3.41
2018-03-15T19:27:19.305Z,3.42
2018-03-15T19:29:45.168Z,3.44
2018-03-15T19:32:11.026Z,3.37
2018-03-15T19:34:36.930Z,3.35
2018-03-15T19:37:02.796Z,3.39
2018-03-15T19:39:28.741Z,3.34
2018-03-15T19:41:54.686Z,3.32
2018-03-15T19:44:20.549Z,3.34
2018-03-15T19:46:47.091Z,3.27
2018-03-15T19:49:13.111Z,3.28
2018-03-15T19:51:39.032Z,3.29
2018-03-15T19:54:04.896Z,3.24
2018-03-15T19:56:30.902Z,3.21
2018-03-15T19:58:56.777Z,3.22
2018-03-15T20:01:22.650Z,3.22
2018-03-15T20:03:48.704Z,3.20
2018-03-15T20:06:14.577Z,3.18
2018-03-15T20:08:40.453Z,3.15
2018-03-15T20:11:06.357Z,3.12
2018-03-15T20:13:32.224Z,3.13
2018-03-15T20:15:58.152Z,3.16
2018-03-15T20:18:24.067Z,3.17
2018-03-15T20:20:49.929Z,3.12
2018-03-15T20:23:21.884Z,3.14
2018-03-15T20:25:47.794Z,3.12
2018-03-15T20:31:18.313Z,3.08
2018-03-15T20:33:50.161Z,3.04
2018-03-15T20:36:16.021Z,3.03
2018-03-15T20:38:42.065Z,3.08
2018-03-15T20:41:14.189Z,3.03
2018-03-15T20:43:40.670Z,3.01
2018-03-15T20:46:13.032Z,2.94
2018-03-15T20:48:45.370Z,2.96
2018-03-15T20:51:11.402Z,2.97
2018-03-15T20:53:37.305Z,2.95
2018-03-15T20:56:03.218Z,2.91
2018-03-15T20:58:29.074Z,2.88
2018-03-15T21:00:55.061Z,2.88
2018-03-15T21:03:21.010Z,2.86
2018-03-15T21:05:47.038Z,2.90
2018-03-15T21:08:12.935Z,2.92
2018-03-15T21:10:38.793Z,2.89
2018-03-15T21:13:04.641Z,2.87
2018-03-15T21:15:30.527Z,2.82
2018-03-15T21:17:56.415Z,2.81
2018-03-15T21:20:22.329Z,2.78
2018-03-15T21:22:48.224Z,2.76
2018-03-15T21:25:14.098Z,2.76
2018-03-15T21:27:39.958Z,2.81
2018-03-15T21:30:05.869Z,2.79
2018-03-15T21:32:31.804Z,2.78
2018-03-15T21:34:57.652Z,2.74
2018-03-15T21:37:23.614Z,2.80
2018-03-15T21:39:49.472Z,2.78
2018-03-15T21:42:15.724Z,2.80
2018-03-15T21:44:41.638Z,2.77
2018-03-15T21:47:07.502Z,2.83
2018-03-15T21:49:33.429Z,2.80
2018-03-15T21:51:59.390Z,2.73
2018-03-15T21:54:25.253Z,2.74
2018-03-15T21:56:51.093Z,2.71
2018-03-15T21:59:16.985Z,2.75
2018-03-15T22:01:42.844Z,2.78
2018-03-15T22:04:08.692Z,2.75
2018-03-15T22:06:34.585Z,2.69
2018-03-15T22:09:00.445Z,2.67
2018-03-15T22:11:26.319Z,2.70
2018-03-15T22:13:52.269Z,2.67
2018-03-15T22:16:18.177Z,2.70
2018-03-15T22:18:44.046Z,2.66
2018-03-15T22:21:09.949Z,2.69
2018-03-15T22:23:35.809Z,2.66
2018-03-15T22:26:01.668Z,2.65
2018-03-15T22:28:27.577Z,2.69
2018-03-15T22:30:53.473Z,2.71
2018-03-15T22:33:19.345Z,2.61
2018-03-15T22:35:45.282Z,2.62
2018-03-15T22:38:11.132Z,2.63
2018-03-15T22:40:36.992Z,2.67
2018-03-15T22:43:02.895Z,2.64
2018-03-15T22:45:28.759Z,2.60
2018-03-15T22:47:54.618Z,2.59
2018-03-15T22:50:20.505Z,2.61
2018-03-15T22:52:46.430Z,2.60
2018-03-15T22:55:12.286Z,2.59
2018-03-15T22:57:38.194Z,2.63
2018-03-15T23:00:04.055Z,2.54
2018-03-15T23:02:29.905Z,2.54
2018-03-15T23:04:55.801Z,2.63
2018-03-15T23:07:21.664Z,2.57
2018-03-15T23:09:47.516Z,2.53
2018-03-15T23:12:13.409Z,2.50
2018-03-15T23:14:39.350Z,2.49
2018-03-15T23:17:05.211Z,2.50
2018-03-15T23:19:31.118Z,2.49
2018-03-15T23:21:56.977Z,2.50
2018-03-15T23:24:22.830Z,2.45
2018-03-15T23:26:48.727Z,2.45
2018-03-15T23:29:14.588Z,2.42
2018-03-15T23:31:40.444Z,2.43
2018-03-15T23:34:06.333Z,2.45
2018-03-15T23:36:32.202Z,2.42
2018-03-15T23:38:58.069Z,2.46
2018-03-15T23:41:23.976Z,2.43
2018-03-15T23:43:49.833Z,2.45
2018-03-15T23:46:15.730Z,2.44
2018-03-15T23:48:41.704Z,2.41
2018-03-15T23:51:07.620Z,2.44
2018-03-15T23:53:33.534Z,2.42
2018-03-15T23:55:59.428Z,2.40
2018-03-15T23:58:25.285Z,2.48
